createdAt,value
2018-03-22T00:02:27.703Z,15.07
2018-03-22T00:04:55.400Z,14.67
2018-03-22T00:07:23.130Z,13.70
2018-03-22T00:09:50.763Z,12.77
2018-03-22T00:12:18.445Z,14.23
2018-03-22T00:14:46.574Z,13.33
2018-03-22T00:17:14.686Z,14.73
2018-03-22T00:19:42.306Z,12.40
2018-03-22T00:25:19.633Z,12.20
2018-03-22T00:27:47.307Z,13.27
2018-03-22T00:30:14.882Z,13.23
2018-03-22T00:32:42.470Z,14.43
2018-03-22T00:35:10.419Z,13.68
2018-03-22T00:37:39.344Z,13.60
2018-03-22T00:40:06.933Z,12.43
2018-03-22T00:42:34.561Z,11.40
2018-03-22T00:45:02.116Z,12.83
2018-03-22T00:47:29.723Z,12.47
2018-03-22T00:49:57.363Z,12.50
2018-03-22T00:52:24.967Z,12.50
2018-03-22T00:54:52.543Z,11.10
2018-03-22T00:57:20.543Z,13.17
2018-03-22T00:59:48.143Z,12.63
2018-03-22T01:02:15.712Z,13.97
2018-03-22T01:04:43.283Z,13.10
2018-03-22T01:07:10.851Z,11.90
2018-03-22T01:09:38.704Z,13.30
2018-03-22T01:12:06.281Z,13.27
2018-03-22T01:14:34.346Z,11.35
2018-03-22T01:17:01.868Z,12.45
2018-03-22T01:19:29.546Z,12.97
2018-03-22T01:21:57.170Z,13.40
2018-03-22T01:24:24.775Z,13.10
2018-03-22T01:26:52.371Z,13.90
2018-03-22T01:29:20.342Z,12.20
2018-03-22T01:31:48.307Z,13.67
2018-03-22T01:34:15.853Z,12.70
2018-03-22T01:36:43.837Z,13.27
2018-03-22T01:39:11.436Z,11.77
2018-03-22T01:41:39.050Z,12.80
2018-03-22T01:44:06.685Z,11.77
2018-03-22T01:46:34.254Z,12.53
2018-03-22T01:49:03.199Z,22.87
2018-03-22T01:51:30.827Z,30.23
2018-03-22T01:53:58.747Z,24.40
2018-03-22T01:56:26.389Z,18.17
2018-03-22T01:58:53.931Z,22.90
2018-03-22T02:01:21.481Z,27.23
2018-03-22T02:03:49.064Z,20.13
2018-03-22T02:06:16.627Z,12.73
2018-03-22T02:08:44.168Z,14.10
2018-03-22T02:11:11.743Z,16.48
2018-03-22T02:13:39.306Z,12.27
2018-03-22T02:16:06.888Z,11.80
2018-03-22T02:18:34.455Z,14.03
2018-03-22T02:21:03.395Z,13.10
2018-03-22T02:23:31.178Z,13.73
2018-03-22T02:25:59.006Z,12.70
2018-03-22T02:28:27.220Z,13.33
2018-03-22T02:30:54.806Z,13.32
2018-03-22T02:33:22.348Z,13.30
2018-03-22T02:35:49.898Z,18.90
2018-03-22T02:38:17.438Z,14.10
2018-03-22T02:40:45.050Z,13.03
2018-03-22T02:43:12.799Z,24.63
2018-03-22T02:45:40.354Z,13.53
2018-03-22T02:48:07.978Z,14.00
2018-03-22T02:50:35.561Z,15.70
2018-03-22T02:53:03.145Z,14.03
2018-03-22T02:55:30.705Z,14.75
2018-03-22T02:57:58.687Z,16.17
2018-03-22T03:00:27.008Z,15.48
2018-03-22T03:02:54.566Z,14.60
2018-03-22T03:05:23.561Z,14.33
2018-03-22T03:07:52.061Z,14.10
2018-03-22T03:10:19.637Z,13.80
2018-03-22T03:12:47.196Z,15.60
2018-03-22T03:15:14.790Z,15.30
2018-03-22T03:17:42.373Z,14.20
2018-03-22T03:20:10.261Z,16.07
2018-03-22T03:22:37.919Z,14.82
2018-03-22T03:25:06.908Z,16.30
2018-03-22T03:27:34.466Z,15.47
2018-03-22T03:30:02.075Z,14.93
2018-03-22T03:32:30.505Z,14.83
2018-03-22T03:34:59.470Z,14.87
2018-03-22T03:37:27.035Z,15.07
2018-03-22T03:39:55.691Z,14.73
2018-03-22T03:42:23.270Z,17.10
2018-03-22T03:44:51.801Z,15.57
2018-03-22T03:47:19.368Z,15.60
2018-03-22T03:49:47.871Z,15.17
2018-03-22T03:52:16.202Z,16.87
2018-03-22T03:54:43.742Z,17.10
2018-03-22T03:57:11.696Z,15.83
2018-03-22T03:59:39.254Z,16.60
2018-03-22T04:02:06.805Z,16.60
2018-03-22T04:04:34.364Z,17.60
2018-03-22T04:07:01.907Z,16.23
2018-03-22T04:09:29.471Z,16.55
2018-03-22T04:11:57.034Z,15.83
2018-03-22T04:14:24.595Z,15.40
2018-03-22T04:16:52.895Z,16.83
2018-03-22T04:19:20.842Z,15.70
2018-03-22T04:21:48.460Z,15.03
2018-03-22T04:24:16.015Z,14.80
2018-03-22T04:26:43.585Z,16.27
2018-03-22T04:29:11.977Z,16.20
2018-03-22T04:31:39.599Z,13.80
2018-03-22T04:34:07.581Z,13.63
2018-03-22T04:36:35.514Z,16.37
2018-03-22T04:39:03.125Z,15.23
2018-03-22T04:41:31.405Z,14.40
2018-03-22T04:43:59.005Z,15.13
2018-03-22T04:46:26.631Z,15.63
2018-03-22T04:48:54.225Z,15.57
2018-03-22T04:51:21.766Z,15.73
2018-03-22T04:53:49.334Z,14.73
2018-03-22T04:56:16.934Z,15.13
2018-03-22T04:58:44.929Z,12.43
2018-03-22T05:01:12.506Z,16.17
2018-03-22T05:03:40.068Z,13.40
2018-03-22T05:06:07.725Z,13.07
2018-03-22T05:08:35.400Z,16.37
2018-03-22T05:11:03.009Z,15.60
2018-03-22T05:13:31.150Z,14.00
2018-03-22T05:15:59.340Z,13.52
2018-03-22T05:18:27.046Z,14.70
2018-03-22T05:20:54.736Z,14.43
2018-03-22T05:23:22.440Z,15.03
2018-03-22T05:25:50.130Z,17.70
2018-03-22T05:28:17.801Z,15.07
2018-03-22T05:30:45.490Z,14.93
2018-03-22T05:33:13.113Z,17.20
2018-03-22T05:35:45.273Z,17.27
2018-03-22T05:38:14.267Z,14.85
2018-03-22T05:40:43.325Z,14.03
2018-03-22T05:43:19.493Z,15.93
2018-03-22T05:48:28.822Z,15.63
2018-03-22T05:50:56.462Z,13.97
2018-03-22T05:53:24.272Z,14.63
2018-03-22T05:55:54.753Z,15.30
2018-03-22T05:58:22.528Z,16.80
2018-03-22T06:03:57.980Z,15.75
2018-03-22T06:06:25.664Z,14.68
2018-03-22T06:08:55.663Z,17.03
2018-03-22T06:11:23.597Z,14.63
2018-03-22T06:13:51.260Z,15.67
2018-03-22T06:16:23.450Z,15.15
2018-03-22T06:18:51.122Z,14.20
2018-03-22T06:21:20.223Z,15.10
2018-03-22T06:23:49.576Z,13.30
2018-03-22T06:26:17.631Z,15.57
2018-03-22T06:28:45.992Z,14.27
2018-03-22T06:31:14.725Z,13.03
2018-03-22T06:33:46.015Z,14.33
2018-03-22T06:36:13.768Z,14.13
2018-03-22T06:38:44.373Z,15.07
2018-03-22T06:41:23.531Z,14.83
2018-03-22T06:43:56.903Z,13.00
2018-03-22T06:46:28.372Z,15.20
2018-03-22T06:49:03.786Z,14.03
2018-03-22T06:54:09.411Z,14.33
2018-03-22T06:56:43.929Z,13.23
2018-03-22T07:02:09.038Z,14.40
2018-03-22T07:04:37.824Z,15.70
2018-03-22T07:07:17.854Z,12.63
2018-03-22T07:09:45.501Z,13.53
2018-03-22T07:12:14.301Z,14.47
2018-03-22T07:14:42.828Z,14.87
2018-03-22T07:17:11.902Z,13.50
2018-03-22T07:19:39.724Z,12.53
2018-03-22T07:22:08.124Z,12.53
2018-03-22T07:24:37.957Z,12.45
2018-03-22T07:27:05.629Z,13.97
2018-03-22T07:29:33.406Z,13.70
2018-03-22T07:32:01.092Z,12.67
2018-03-22T07:34:32.688Z,11.10
2018-03-22T07:37:01.193Z,11.80
2018-03-22T07:39:28.871Z,10.63
2018-03-22T07:41:56.516Z,13.23
2018-03-22T07:44:29.824Z,12.03
2018-03-22T07:47:00.475Z,11.77
2018-03-22T07:49:29.542Z,13.18
2018-03-22T07:55:08.035Z,10.50
2018-03-22T07:57:43.990Z,11.20
2018-03-22T08:00:14.510Z,11.00
2018-03-22T08:02:44.477Z,11.47
2018-03-22T08:05:14.316Z,12.10
2018-03-22T08:10:28.642Z,11.50
2018-03-22T08:12:56.475Z,10.67
2018-03-22T08:15:24.187Z,12.60
2018-03-22T08:17:56.621Z,11.85
2018-03-22T08:20:24.285Z,11.77
2018-03-22T08:22:54.653Z,12.45
2018-03-22T08:25:22.384Z,11.87
2018-03-22T08:28:18.695Z,12.47
2018-03-22T08:30:54.834Z,12.00
2018-03-22T08:33:25.331Z,12.57
2018-03-22T08:35:57.746Z,12.57
2018-03-22T08:38:25.764Z,13.03
2018-03-22T08:40:56.973Z,13.67
2018-03-22T08:43:24.984Z,10.60
2018-03-22T08:45:53.266Z,13.13
2018-03-22T08:48:21.078Z,12.20
2018-03-22T08:50:48.733Z,12.02
2018-03-22T08:53:16.421Z,13.80
2018-03-22T08:55:45.105Z,12.17
2018-03-22T08:58:13.336Z,12.85
2018-03-22T09:00:44.798Z,12.77
2018-03-22T09:03:12.463Z,12.17
2018-03-22T09:05:40.241Z,15.30
2018-03-22T09:08:08.357Z,14.10
2018-03-22T09:10:43.853Z,15.50
2018-03-22T09:13:11.518Z,15.10
2018-03-22T09:15:39.143Z,14.90
2018-03-22T09:18:08.958Z,14.27
2018-03-22T09:20:36.614Z,14.18
2018-03-22T09:23:06.482Z,14.60
2018-03-22T09:25:35.148Z,15.27
2018-03-22T09:28:02.847Z,15.00
2018-03-22T09:30:30.649Z,15.80
2018-03-22T09:32:58.379Z,14.15
2018-03-22T09:35:30.681Z,16.53
2018-03-22T09:37:58.756Z,15.27
2018-03-22T09:40:26.468Z,16.33
2018-03-22T09:42:54.477Z,18.35
2018-03-22T09:45:22.154Z,16.75
2018-03-22T09:47:51.487Z,17.77
2018-03-22T09:50:19.223Z,16.80
2018-03-22T09:52:46.976Z,19.00
2018-03-22T09:55:15.478Z,18.00
2018-03-22T09:57:54.376Z,16.60
2018-03-22T10:00:23.108Z,18.67
2018-03-22T10:02:52.942Z,18.03
2018-03-22T10:05:22.587Z,19.10
2018-03-22T10:07:56.620Z,17.50
2018-03-22T10:10:26.111Z,19.60
2018-03-22T10:12:55.224Z,19.70
2018-03-22T10:15:29.226Z,19.73
2018-03-22T10:18:07.211Z,22.82
2018-03-22T10:20:40.894Z,22.02
2018-03-22T10:23:22.773Z,21.90
2018-03-22T10:25:56.315Z,21.92
2018-03-22T10:31:43.041Z,22.48
2018-03-22T14:30:51.433Z,26.25
2018-03-22T14:33:55.131Z,25.63
2018-03-22T14:36:31.035Z,27.73
2018-03-22T14:39:32.269Z,27.30
2018-03-22T14:48:12.371Z,29.77
2018-03-22T15:10:46.621Z,28.35
2018-03-22T15:16:23.767Z,27.58
2018-03-22T15:22:14.392Z,29.23
2018-03-22T15:30:58.352Z,29.20
2018-03-22T16:02:37.460Z,25.83
2018-03-22T16:05:08.612Z,23.27
2018-03-22T16:08:00.875Z,26.12
2018-03-22T16:10:32.956Z,25.20
2018-03-22T16:13:05.088Z,26.12
2018-03-22T16:15:35.315Z,26.30
2018-03-22T16:18:03.917Z,26.00
2018-03-22T16:20:31.554Z,25.33
2018-03-22T16:23:01.120Z,24.60
2018-03-22T16:25:30.574Z,26.20
2018-03-22T16:28:01.149Z,26.33
2018-03-22T16:30:32.705Z,27.23
2018-03-22T16:33:02.575Z,24.77
2018-03-22T16:47:37.020Z,22.85
2018-03-22T16:50:17.747Z,20.37
2018-03-22T16:55:58.762Z,20.72
2018-03-22T16:58:46.305Z,19.93
2018-03-22T17:01:17.753Z,20.77
2018-03-22T17:04:09.900Z,18.80
2018-03-22T17:07:11.326Z,19.10
2018-03-22T17:09:46.817Z,19.70
2018-03-22T17:15:31.326Z,18.03
2018-03-22T17:18:01.635Z,20.58
2018-03-22T17:20:32.238Z,19.73
2018-03-22T17:23:05.901Z,17.75
2018-03-22T17:25:35.821Z,18.43
2018-03-22T17:28:05.832Z,20.37
2018-03-22T17:30:34.866Z,20.12
2018-03-22T17:33:05.440Z,21.87
2018-03-22T19:45:29.197Z,20.20
